Time;durP1;ratioP1;P1;durP2;ratioP2;P2;SDS_P1;SDS_P2;PMS_P1;PMS_P2;Temp;Humidity;BMP_temperature;BMP_pressure;BME280_temperature;BME280_humidity;BME280_pressure;Samples;Min_cycle;Max_cycle;Signal;HPM_P1;HPM_P2
2021/09/13 00:02:58;;;;;;;2.06;1.04;;;;;;;12.21;88.19;99468.19;1989655;80;36739;-81
2021/09/13 00:06:07;;;;;;;1.27;0.90;;;;;;;12.14;88.04;99468.25;1988082;82;20168;-81
2021/09/13 00:09:16;;;;;;;1.13;0.93;;;;;;;12.02;88.06;99470.06;1984103;82;20214;-82
2021/09/13 00:12:19;;;;;;;1.71;0.88;;;;;;;11.99;88.29;99474.44;1982055;82;20242;-81
2021/09/13 00:15:29;;;;;;;1.38;1.10;;;;;;;11.93;88.38;99477.13;1985073;82;20198;-81
2021/09/13 00:18:38;;;;;;;1.02;0.90;;;;;;;11.87;88.59;99474.56;1986136;82;20171;-82
2021/09/13 00:21:40;;;;;;;1.91;0.90;;;;;;;11.84;88.59;99472.84;1986299;82;20207;-82
2021/09/13 00:24:50;;;;;;;2.03;1.20;;;;;;;11.81;88.75;99467.66;1982797;82;20155;-82
2021/09/13 00:28:00;;;;;;;1.11;0.80;;;;;;;11.86;88.77;99473.72;1986009;82;20229;-81
2021/09/13 00:31:03;;;;;;;0.88;0.70;;;;;;;11.89;88.39;99481.50;1982919;82;20131;-82
2021/09/13 00:34:12;;;;;;;1.10;0.79;;;;;;;11.87;87.89;99475.44;1989139;82;20215;-82
2021/09/13 00:37:36;;;;;;;4.25;1.15;;;;;;;11.85;87.54;99468.50;1987140;82;20166;-82
2021/09/13 00:40:45;;;;;;;1.04;0.95;;;;;;;11.70;87.63;99462.53;1989215;82;20135;-81
2021/09/13 00:43:54;;;;;;;2.94;0.90;;;;;;;11.72;87.73;99457.31;1987324;82;20195;-81
2021/09/13 00:46:59;;;;;;;3.17;1.00;;;;;;;11.66;87.61;99455.59;1982725;82;20135;-82
2021/09/13 00:50:09;;;;;;;1.23;1.08;;;;;;;11.60;87.70;99454.78;1982309;82;20232;-83
2021/09/13 00:53:12;;;;;;;1.00;0.66;;;;;;;11.52;87.98;99454.00;1982802;82;20265;-82
2021/09/13 00:56:27;;;;;;;0.74;0.74;;;;;;;11.40;88.34;99450.59;1986978;82;20163;-81
2021/09/13 00:59:36;;;;;;;2.25;0.93;;;;;;;11.37;88.66;99452.38;1984399;82;20246;-80
2021/09/13 01:02:45;;;;;;;;;;;;;;;11.37;88.78;99444.56;1986442;80;25810;-82
2021/09/13 01:05:49;;;;;;;2.24;0.98;;;;;;;11.40;88.56;99439.34;1981592;82;20048;-81
2021/09/13 01:08:58;;;;;;;1.83;0.70;;;;;;;11.41;88.07;99444.53;1984029;82;20131;-81
2021/09/13 01:12:08;;;;;;;0.68;0.68;;;;;;;11.41;87.78;99443.66;1981962;82;20148;-81
2021/09/13 01:15:13;;;;;;;1.64;0.90;;;;;;;11.42;87.41;99441.06;1989604;82;20119;-83
2021/09/13 01:18:22;;;;;;;1.90;1.09;;;;;;;11.32;87.25;99439.41;1991675;82;20218;-82
2021/09/13 01:21:27;;;;;;;3.96;0.99;;;;;;;11.32;87.52;99433.34;1980864;82;20166;-81
2021/09/13 01:24:36;;;;;;;2.39;1.13;;;;;;;11.35;87.49;99439.38;1982003;82;20210;-82
2021/09/13 01:27:39;;;;;;;1.69;1.02;;;;;;;11.34;87.51;99442.00;1985709;82;20127;-81
2021/09/13 01:30:49;;;;;;;1.00;0.90;;;;;;;11.30;87.72;99440.25;1985826;79;36420;-82
2021/09/13 01:33:58;;;;;;;1.11;0.95;;;;;;;11.25;87.94;99436.84;1984298;82;20138;-82
2021/09/13 01:37:14;;;;;;;;;;;;;;;11.25;88.04;99437.69;1985079;81;20187;-82
2021/09/13 01:40:30;;;;;;;2.08;0.96;;;;;;;11.25;87.87;99439.44;1987754;82;20043;-82
2021/09/13 01:43:39;;;;;;;0.94;0.84;;;;;;;11.22;87.37;99442.94;1981186;82;20198;-81
2021/09/13 01:46:42;;;;;;;1.56;0.90;;;;;;;11.19;87.16;99442.94;1982231;82;20203;-82
2021/09/13 01:49:51;;;;;;;1.67;1.01;;;;;;;11.17;86.87;99432.56;1984833;82;20190;-81
2021/09/13 01:52:54;;;;;;;2.14;0.94;;;;;;;11.10;87.02;99433.47;1984488;82;20135;-81
2021/09/13 01:56:03;;;;;;;2.15;1.17;;;;;;;11.09;87.25;99438.66;1982402;82;20175;-81
2021/09/13 01:59:12;;;;;;;1.39;0.99;;;;;;;11.09;87.40;99433.47;1983339;82;20155;-81
2021/09/13 02:02:21;;;;;;;;;;;;;;;11.08;86.96;99434.34;1985075;79;34908;-81
2021/09/13 02:05:24;;;;;;;1.79;0.79;;;;;;;11.04;86.73;99437.84;1986763;82;20036;-82
2021/09/13 02:08:33;;;;;;;1.30;1.00;;;;;;;10.97;86.87;99443.94;1985628;82;20167;-81
2021/09/13 02:11:36;;;;;;;1.38;0.81;;;;;;;10.96;87.27;99444.81;1984698;82;20143;-81
2021/09/13 02:14:45;;;;;;;1.21;0.91;;;;;;;10.94;87.36;99439.59;1991556;82;20178;-82
2021/09/13 02:17:54;;;;;;;0.82;0.80;;;;;;;10.90;87.85;99428.38;1985591;80;34587;-82
2021/09/13 02:20:57;;;;;;;1.52;0.86;;;;;;;10.86;88.75;99429.25;1981905;82;20271;-82
2021/09/13 02:24:06;;;;;;;1.40;0.89;;;;;;;10.87;89.49;99432.72;1985800;82;20135;-82
2021/09/13 02:27:15;;;;;;;3.44;0.86;;;;;;;10.90;90.00;99430.09;1986373;82;20169;-81
2021/09/13 02:30:18;;;;;;;2.04;0.70;;;;;;;10.93;90.39;99437.88;1984286;82;20178;-82
2021/09/13 02:33:27;;;;;;;0.90;0.81;;;;;;;10.94;90.68;99433.56;1989067;82;20191;-81
2021/09/13 02:36:36;;;;;;;2.01;0.93;;;;;;;10.96;91.07;99437.03;1984906;82;20138;-81
2021/09/13 02:39:52;;;;;;;1.16;1.00;;;;;;;11.03;91.49;99429.19;1986740;82;20200;-81
2021/09/13 02:42:54;;;;;;;0.90;0.89;;;;;;;11.15;91.57;99428.25;1988688;82;20170;-80
2021/09/13 02:46:03;;;;;;;;;;;;;;;11.30;91.65;99427.28;1989714;82;20138;-82
2021/09/13 02:49:06;;;;;;;1.20;0.88;;;;;;;11.35;91.27;99431.59;1992127;82;20040;-82
2021/09/13 02:52:15;;;;;;;2.21;0.84;;;;;;;11.35;91.18;99435.91;1986022;82;20235;-82
2021/09/13 02:55:18;;;;;;;1.81;1.09;;;;;;;11.31;91.28;99434.19;1989945;82;20294;-82
2021/09/13 02:58:27;;;;;;;1.16;1.06;;;;;;;11.31;91.45;99434.19;1991019;82;20155;-81
2021/09/13 03:01:36;;;;;;;1.35;1.00;;;;;;;11.35;91.73;99422.91;1991280;82;20156;-81
2021/09/13 03:04:46;;;;;;;1.65;1.10;;;;;;;11.44;91.81;99422.84;1989413;82;20200;-82
2021/09/13 03:07:55;;;;;;;2.64;1.05;;;;;;;11.49;91.72;99423.69;1988300;82;20174;-82
2021/09/13 03:11:04;;;;;;;3.96;1.20;;;;;;;11.48;91.71;99421.94;1992206;82;20158;-82
2021/09/13 03:14:13;;;;;;;1.29;1.19;;;;;;;11.48;91.87;99420.19;1989428;82;20248;-82
2021/09/13 03:17:22;;;;;;;;;;;;;;;11.48;91.95;99417.59;1992963;79;24587;-81
2021/09/13 03:20:25;;;;;;;1.67;1.11;;;;;;;11.49;92.09;99411.56;1992651;82;20134;-82
2021/09/13 03:23:34;;;;;;;2.46;1.13;;;;;;;11.53;92.07;99408.94;1988696;82;20166;-81
2021/09/13 03:26:37;;;;;;;1.25;0.93;;;;;;;11.56;91.95;99419.28;1988423;82;20178;-81
2021/09/13 03:29:46;;;;;;;1.38;1.09;;;;;;;11.58;91.87;99415.81;1991764;82;20158;-81
2021/09/13 03:32:55;;;;;;;;;;;;;;;11.58;91.84;99414.94;1994092;79;43708;-81
2021/09/13 03:35:58;;;;;;;1.15;1.08;;;;;;;11.57;91.73;99403.69;1995996;81;20011;-82
2021/09/13 03:39:14;;;;;;;2.16;1.06;;;;;;;11.57;91.51;99405.41;1983776;82;20139;-82
2021/09/13 03:42:24;;;;;;;1.71;1.04;;;;;;;11.53;91.66;99411.53;1985190;82;20191;-81
2021/09/13 03:45:33;;;;;;;6.96;1.64;;;;;;;11.49;91.56;99421.94;1994609;82;20143;-81
2021/09/13 03:48:42;;;;;;;;;;;;;;;11.47;91.71;99413.28;1980859;82;20143;-82
2021/09/13 03:51:45;;;;;;;1.64;1.09;;;;;;;11.48;91.98;99414.13;1982666;82;20103;-81
2021/09/13 03:54:54;;;;;;;3.04;1.26;;;;;;;11.52;92.17;99412.41;1983377;82;20182;-81
2021/09/13 03:58:04;;;;;;;2.24;1.20;;;;;;;11.62;92.00;99411.44;1984192;82;21222;-81
2021/09/13 04:01:07;;;;;;;1.10;1.00;;;;;;;11.71;91.56;99403.56;1980341;82;20131;-80
2021/09/13 04:04:21;;;;;;;1.85;1.17;;;;;;;11.77;91.26;99396.56;1981948;82;20232;-82
2021/09/13 04:07:38;;;;;;;2.28;1.10;;;;;;;11.84;90.76;99399.97;1990292;82;20179;-82
2021/09/13 04:11:04;;;;;;;2.21;0.90;;;;;;;11.82;90.49;99395.69;1987177;82;20250;-81
2021/09/13 04:14:14;;;;;;;2.35;1.17;;;;;;;11.71;90.44;99398.38;1984101;82;20193;-81
2021/09/13 04:17:16;;;;;;;3.15;1.01;;;;;;;11.61;90.67;99399.31;1984836;80;31558;-82
2021/09/13 04:20:25;;;;;;;2.10;1.00;;;;;;;11.56;90.90;99396.75;1981018;82;20172;-82
2021/09/13 04:23:38;;;;;;;4.22;1.17;;;;;;;11.50;90.84;99399.41;1993161;82;20139;-80
2021/09/13 04:26:41;;;;;;;4.03;1.00;;;;;;;11.43;90.91;99393.38;1989220;82;20123;-81
2021/09/13 04:29:49;;;;;;;1.46;1.00;;;;;;;11.38;91.05;99402.09;1984507;82;20151;-83
2021/09/13 04:32:58;;;;;;;1.75;1.09;;;;;;;11.34;91.29;99406.47;1983430;80;28696;-82
2021/09/13 04:36:01;;;;;;;1.02;0.98;;;;;;;11.33;91.33;99409.06;1985829;82;20142;-80
2021/09/13 04:39:17;;;;;;;2.91;1.10;;;;;;;11.36;91.67;99424.66;1988713;82;20126;-81
2021/09/13 04:42:19;;;;;;;2.80;1.10;;;;;;;11.43;91.48;99424.56;1990652;82;20178;-81
2021/09/13 04:45:28;;;;;;;;;;;;;;;11.48;91.44;99416.72;1989789;82;20217;-81
2021/09/13 04:48:31;;;;;;;1.64;0.73;;;;;;;11.52;91.49;99415.88;1987884;82;20296;-82
2021/09/13 04:51:40;;;;;;;1.95;0.98;;;;;;;11.57;91.23;99421.03;1987155;82;20771;-82
2021/09/13 04:54:43;;;;;;;1.73;1.63;;;;;;;11.53;91.34;99412.38;1997759;82;20138;-81
2021/09/13 04:57:52;;;;;;;1.40;1.08;;;;;;;11.57;91.64;99408.88;1991802;82;20639;-82
2021/09/13 05:01:01;;;;;;;2.78;1.04;;;;;;;11.64;91.57;99413.13;1988106;82;20138;-81
2021/09/13 05:04:06;;;;;;;2.80;1.13;;;;;;;11.66;91.43;99413.97;1985410;82;20139;-81
2021/09/13 05:07:15;;;;;;;3.21;1.20;;;;;;;11.71;91.38;99412.22;1989149;82;20174;-81
2021/09/13 05:10:24;;;;;;;3.10;1.14;;;;;;;11.78;90.88;99416.53;1989217;82;20130;-81
2021/09/13 05:13:33;;;;;;;;;;;;;;;11.81;90.21;99413.03;1991444;82;20142;-82
2021/09/13 05:16:37;;;;;;;1.40;0.85;;;;;;;11.80;90.00;99414.78;1996665;81;20094;-81
2021/09/13 05:19:46;;;;;;;3.66;1.56;;;;;;;11.71;89.86;99408.78;1990438;82;20150;-81
2021/09/13 05:22:50;;;;;;;3.08;0.96;;;;;;;11.68;90.25;99417.47;1987842;82;20158;-81
2021/09/13 05:25:59;;;;;;;2.69;1.14;;;;;;;11.71;89.85;99413.97;1989062;82;20122;-80
2021/09/13 05:29:02;;;;;;;2.55;0.93;;;;;;;11.69;89.33;99411.38;1994720;82;20155;-81
2021/09/13 05:32:11;;;;;;;3.35;1.10;;;;;;;11.65;89.09;99412.25;1987810;79;22116;-81
2021/09/13 05:35:14;;;;;;;3.81;0.90;;;;;;;11.58;89.38;99413.19;1993111;82;20130;-84
2021/09/13 05:38:32;;;;;;;2.11;0.98;;;;;;;11.52;89.66;99418.47;1987680;82;20181;-83
2021/09/13 05:41:41;;;;;;;2.04;1.14;;;;;;;11.47;90.32;99422.81;1990992;82;20177;-81
2021/09/13 05:44:50;;;;;;;;;;;;;;;11.46;90.87;99424.56;1991613;82;20152;-83
2021/09/13 05:47:53;;;;;;;1.16;1.06;;;;;;;11.52;90.92;99431.47;1987633;80;66539;-83
2021/09/13 05:51:02;;;;;;;2.46;1.10;;;;;;;11.58;90.67;99434.00;1989917;82;20118;-82
2021/09/13 05:54:12;;;;;;;1.23;1.13;;;;;;;11.59;90.87;99434.88;1985100;82;20150;-84
2021/09/13 05:57:22;;;;;;;1.10;1.04;;;;;;;11.67;90.99;99440.84;1986786;82;20150;-84
2021/09/13 06:00:33;;;;;;;1.77;1.11;;;;;;;11.77;91.21;99434.72;1989146;82;20191;-83
2021/09/13 06:03:44;;;;;;;1.95;1.35;;;;;;;11.94;90.51;99434.59;1984262;82;20385;-82
2021/09/13 06:06:58;;;;;;;1.48;1.10;;;;;;;12.09;89.85;99435.31;1995015;82;20263;-82
2021/09/13 06:10:21;;;;;;;1.99;1.29;;;;;;;12.20;89.88;99435.19;1994234;82;20150;-82
2021/09/13 06:13:40;;;;;;;1.79;1.60;;;;;;;12.21;90.01;99436.94;1986502;82;20185;-82
2021/09/13 06:17:44;;;;;;;1.40;1.27;;;;;;;12.33;90.25;99442.00;1983277;82;980870;-83
2021/09/13 14:02:06;;;;;;;0.50;0.50;;;;;;;26.54;41.96;99252.13;2185125;71;20425;-81
2021/09/13 14:14:51;;;;;;;1.46;0.40;;;;;;;26.80;39.77;99251.09;1992198;81;20121;-82
2021/09/13 20:40:25;;;;;;;5.60;1.99;;;;;;;16.50;83.06;99247.97;1995121;71;20397;-82
2021/09/13 20:44:15;;;;;;;5.07;2.51;;;;;;;16.50;82.87;99247.97;1994882;81;20298;-80
2021/09/13 20:48:14;;;;;;;5.91;2.56;;;;;;;16.42;82.76;99247.38;1974767;82;20445;-79
2021/09/13 20:51:42;;;;;;;4.51;2.91;;;;;;;16.33;83.22;99254.56;1978534;82;20222;-80
2021/09/13 20:55:05;;;;;;;3.03;2.66;;;;;;;16.25;83.45;99251.34;1965771;82;20174;-80
2021/09/13 20:58:11;;;;;;;5.79;3.21;;;;;;;16.19;83.44;99246.28;1963609;82;20205;-79
2021/09/13 21:01:26;;;;;;;5.75;2.74;;;;;;;16.17;83.54;99247.25;1963363;82;20206;-80
2021/09/13 21:04:32;;;;;;;6.26;2.92;;;;;;;16.14;83.74;99245.56;1974327;82;20165;-80
2021/09/13 21:07:53;;;;;;;4.76;3.10;;;;;;;16.16;83.46;99238.53;1974820;82;20186;-79
2021/09/13 21:11:03;;;;;;;6.46;2.74;;;;;;;16.16;83.35;99235.91;1971148;82;20190;-80
2021/09/13 21:14:14;;;;;;;4.93;2.14;;;;;;;16.11;83.41;99232.56;1969258;82;20189;-80
2021/09/13 21:17:48;;;;;;;6.54;2.44;;;;;;;16.00;83.68;99235.50;1975561;82;20190;-80
2021/09/13 21:20:55;;;;;;;3.26;2.21;;;;;;;15.95;84.03;99232.13;1966396;82;20211;-80
2021/09/13 21:24:05;;;;;;;3.30;2.09;;;;;;;15.93;84.31;99238.31;1968962;82;20212;-80
2021/09/13 21:27:24;;;;;;;5.29;1.84;;;;;;;15.94;84.07;99246.13;1975657;82;20254;-80
2021/09/13 21:30:44;;;;;;;5.30;1.89;;;;;;;15.91;84.34;99233.13;1975581;82;20198;-80
2021/09/13 21:34:11;;;;;;;1.96;1.80;;;;;;;15.88;84.47;99235.84;1975631;82;20277;-80
2021/09/13 21:38:29;;;;;;;3.40;1.99;;;;;;;15.83;84.58;99235.13;1970990;82;20222;-80
2021/09/13 21:41:36;;;;;;;2.72;1.75;;;;;;;15.91;83.44;99227.91;1967559;82;20311;-80
2021/09/13 21:44:43;;;;;;;3.67;1.73;;;;;;;16.00;82.79;99229.41;1968339;82;20194;-80
2021/09/13 21:48:13;;;;;;;2.25;1.46;;;;;;;16.12;81.57;99228.16;1964212;82;20243;-80
2021/09/13 21:51:39;;;;;;;2.20;1.35;;;;;;;16.20;80.54;99236.69;1961058;82;20226;-80
2021/09/13 21:54:57;;;;;;;4.38;1.40;;;;;;;16.31;79.40;99227.56;1957605;83;20731;-80
2021/09/13 21:58:04;;;;;;;5.44;1.61;;;;;;;16.32;79.41;99225.81;1965080;82;20726;-80
2021/09/13 22:01:21;;;;;;;2.83;1.65;;;;;;;16.27;79.54;99236.44;1965195;82;20212;-80
2021/09/13 22:04:38;;;;;;;2.26;1.51;;;;;;;16.30;78.97;99233.72;1960051;82;20225;-80
2021/09/13 22:07:57;;;;;;;3.88;1.40;;;;;;;16.33;78.54;99230.13;1967160;82;20690;-80
2021/09/13 22:11:07;;;;;;;2.49;1.51;;;;;;;16.35;78.35;99235.38;1956100;82;20223;-80
2021/09/13 22:14:26;;;;;;;1.58;1.48;;;;;;;16.39;78.19;99232.59;1966133;82;20268;-80
2021/09/13 22:17:49;;;;;;;3.44;1.56;;;;;;;16.43;77.77;99228.13;1966652;82;20195;-80
2021/09/13 22:21:17;;;;;;;4.09;1.48;;;;;;;16.45;77.92;99229.78;1963528;82;20545;-80
2021/09/13 22:24:34;;;;;;;1.74;1.50;;;;;;;16.46;77.56;99226.25;1971331;81;20204;-80
2021/09/13 22:27:57;;;;;;;2.99;1.64;;;;;;;16.52;77.35;99222.59;1986467;81;20848;-80
2021/09/13 22:31:24;;;;;;;4.30;2.59;;;;;;;16.55;77.17;99218.13;1986873;81;20330;-80
2021/09/13 22:34:54;;;;;;;3.76;2.28;;;;;;;16.62;76.83;99218.75;1986414;82;20228;-80
2021/09/13 22:38:13;;;;;;;2.70;2.46;;;;;;;16.66;76.68;99209.03;1986886;81;20188;-80
2021/09/13 22:41:32;;;;;;;5.24;2.64;;;;;;;16.67;76.48;99203.78;1977958;82;20326;-80
2021/09/13 22:44:52;;;;;;;5.97;3.26;;;;;;;16.68;76.27;99207.25;1984106;81;20249;-80
2021/09/13 22:48:11;;;;;;;8.50;3.75;;;;;;;16.68;76.26;99202.00;1981713;82;20209;-80
2021/09/13 22:51:31;;;;;;;;;;;;;;;16.67;76.37;99205.53;1983559;81;20238;-81
2021/09/13 22:54:52;;;;;;;4.94;3.14;;;;;;;16.56;76.78;99208.47;1976146;82;20127;-80
2021/09/13 22:58:30;;;;;;;4.88;3.00;;;;;;;16.53;76.68;99208.59;1977940;82;20484;-80
2021/09/13 23:01:49;;;;;;;7.81;3.28;;;;;;;16.49;76.39;99204.31;1978522;82;20261;-80
2021/09/13 23:09:05;;;;;;;2.65;2.45;;;;;;;16.42;76.15;99206.28;2094390;71;20625;-79
2021/09/13 23:12:38;;;;;;;4.25;2.25;;;;;;;16.37;76.11;99202.97;1980624;82;20743;-80
2021/09/13 23:15:58;;;;;;;;;;;;;;;16.31;76.38;99209.22;1978972;82;20283;-80
2021/09/13 23:19:08;;;;;;;3.58;1.86;;;;;;;16.25;76.38;99203.31;1977174;82;20251;-80
2021/09/13 23:22:27;;;;;;;2.50;2.05;;;;;;;16.21;76.46;99199.09;1981657;82;20224;-80
2021/09/13 23:25:46;;;;;;;5.50;2.44;;;;;;;16.19;76.60;99195.66;1982684;81;20283;-80
2021/09/13 23:29:40;;;;;;;6.16;2.84;;;;;;;16.14;76.96;99194.94;1972110;82;20189;-79
2021/09/13 23:39:49;;;;;;;3.86;3.11;;;;;;;15.71;79.32;99191.81;1995850;71;20295;-80
2021/09/13 23:43:23;;;;;;;4.81;3.03;;;;;;;15.52;80.19;99193.19;1982393;82;20193;-81
2021/09/13 23:46:41;;;;;;;3.24;2.80;;;;;;;15.40;80.72;99194.38;1972230;82;20212;-80
2021/09/13 23:49:54;;;;;;;4.32;2.67;;;;;;;15.24;81.82;99192.22;1972111;82;20740;-81
2021/09/13 23:53:24;;;;;;;;;;;;;;;15.11;82.17;99184.72;1970769;82;21014;-80
2021/09/13 23:56:41;;;;;;;5.93;2.78;;;;;;;15.01;82.63;99178.00;1972956;82;20161;-80
2021/09/13 23:59:53;;;;;;;10.32;3.17;;;;;;;14.89;83.24;99183.50;1969778;82;20194;-80
